sensor_id;sensor_type;location;lat;lon;timestamp;pressure;altitude;pressure_sealevel;temperature;humidity
10510;BME280;5303;53.266;10.410;2023-03-22T00:00:06;100743.97;;;10.44;100.00
10510;BME280;5303;53.266;10.410;2023-03-22T00:02:32;100736.47;;;10.46;100.00
10510;BME280;5303;53.266;10.410;2023-03-22T00:04:57;100735.81;;;10.44;100.00
10510;BME280;5303;53.266;10.410;2023-03-22T00:07:22;100731.91;;;10.38;100.00
10510;BME280;5303;53.266;10.410;2023-03-22T00:09:48;100734.09;;;10.43;100.00
10510;BME280;5303;53.266;10.410;2023-03-22T00:12:13;100719.81;;;10.41;100.00
10510;BME280;5303;53.266;10.410;2023-03-22T00:14:38;100731.72;;;10.40;100.00
10510;BME280;5303;53.266;10.410;2023-03-22T00:17:04;100719.47;;;10.36;100.00
10510;BME280;5303;53.266;10.410;2023-03-22T00:19:29;100720.66;;;10.41;100.00
10510;BME280;5303;53.266;10.410;2023-03-22T00:21:57;100728.84;;;10.41;100.00
10510;BME280;5303;53.266;10.410;2023-03-22T00:24:24;100719.97;;;10.39;100.00
10510;BME280;5303;53.266;10.410;2023-03-22T00:26:50;100718.78;;;10.42;100.00
10510;BME280;5303;53.266;10.410;2023-03-22T00:29:15;100719.66;;;10.34;100.00
10510;BME280;5303;53.266;10.410;2023-03-22T00:31:40;100714.19;;;10.42;100.00
10510;BME280;5303;53.266;10.410;2023-03-22T00:34:05;100712.50;;;10.33;100.00
10510;BME280;5303;53.266;10.410;2023-03-22T00:36:31;100706.41;;;10.31;100.00
10510;BME280;5303;53.266;10.410;2023-03-22T00:38:56;100709.47;;;10.28;100.00
10510;BME280;5303;53.266;10.410;2023-03-22T00:41:22;100700.47;;;10.28;100.00
10510;BME280;5303;53.266;10.410;2023-03-22T00:43:48;100712.69;;;10.32;100.00
10510;BME280;5303;53.266;10.410;2023-03-22T00:46:15;100702.31;;;10.35;100.00
10510;BME280;5303;53.266;10.410;2023-03-22T00:48:41;100703.13;;;10.44;100.00
10510;BME280;5303;53.266;10.410;2023-03-22T00:51:08;100703.84;;;10.38;100.00
10510;BME280;5303;53.266;10.410;2023-03-22T00:53:34;100695.16;;;10.34;100.00
10510;BME280;5303;53.266;10.410;2023-03-22T00:56:02;100703.47;;;10.41;100.00
10510;BME280;5303;53.266;10.410;2023-03-22T00:58:28;100698.88;;;10.41;100.00
10510;BME280;5303;53.266;10.410;2023-03-22T01:00:53;100700.91;;;10.47;100.00
10510;BME280;5303;53.266;10.410;2023-03-22T01:03:19;100698.00;;;10.49;100.00
10510;BME280;5303;53.266;10.410;2023-03-22T01:05:46;100695.81;;;10.44;100.00
10510;BME280;5303;53.266;10.410;2023-03-22T01:08:13;100701.41;;;10.43;100.00
10510;BME280;5303;53.266;10.410;2023-03-22T01:10:40;100693.94;;;10.45;100.00
10510;BME280;5303;53.266;10.410;2023-03-22T01:13:06;100691.91;;;10.47;100.00
10510;BME280;5303;53.266;10.410;2023-03-22T01:15:32;100686.75;;;10.52;100.00
10510;BME280;5303;53.266;10.410;2023-03-22T01:17:57;100676.53;;;10.54;100.00
10510;BME280;5303;53.266;10.410;2023-03-22T01:20:24;100673.47;;;10.57;100.00
10510;BME280;5303;53.266;10.410;2023-03-22T01:22:49;100667.53;;;10.54;100.00
10510;BME280;5303;53.266;10.410;2023-03-22T01:25:15;100672.25;;;10.60;100.00
10510;BME280;5303;53.266;10.410;2023-03-22T01:27:40;100669.41;;;10.53;100.00
10510;BME280;5303;53.266;10.410;2023-03-22T01:30:06;100667.53;;;10.54;100.00
10510;BME280;5303;53.266;10.410;2023-03-22T01:32:32;100661.53;;;10.58;100.00
10510;BME280;5303;53.266;10.410;2023-03-22T01:34:59;100660.34;;;10.61;100.00
10510;BME280;5303;53.266;10.410;2023-03-22T01:37:24;100659.16;;;10.55;100.00
10510;BME280;5303;53.266;10.410;2023-03-22T01:39:53;100656.22;;;10.65;100.00
10510;BME280;5303;53.266;10.410;2023-03-22T01:42:19;100651.25;;;10.68;100.00
10510;BME280;5303;53.266;10.410;2023-03-22T01:47:50;100648.88;;;10.73;100.00
10510;BME280;5303;53.266;10.410;2023-03-22T01:50:16;100639.66;;;10.75;100.00
10510;BME280;5303;53.266;10.410;2023-03-22T01:52:43;100642.22;;;10.76;100.00
10510;BME280;5303;53.266;10.410;2023-03-22T01:55:10;100636.53;;;10.86;100.00
10510;BME280;5303;53.266;10.410;2023-03-22T01:57:37;100630.59;;;10.82;100.00
10510;BME280;5303;53.266;10.410;2023-03-22T02:00:07;100620.22;;;10.78;100.00
10510;BME280;5303;53.266;10.410;2023-03-22T02:02:44;100603.22;;;10.76;100.00
10510;BME280;5303;53.266;10.410;2023-03-22T02:05:11;100609.88;;;10.73;100.00
10510;BME280;5303;53.266;10.410;2023-03-22T02:07:38;100611.44;;;10.67;100.00
10510;BME280;5303;53.266;10.410;2023-03-22T02:10:14;100613.63;;;10.72;100.00
10510;BME280;5303;53.266;10.410;2023-03-22T02:12:55;100608.16;;;10.72;100.00
10510;BME280;5303;53.266;10.410;2023-03-22T02:15:40;100604.25;;;10.75;100.00
10510;BME280;5303;53.266;10.410;2023-03-22T02:18:39;100602.00;;;10.78;100.00
10510;BME280;5303;53.266;10.410;2023-03-22T02:29:35;100589.84;;;10.89;100.00
10510;BME280;5303;53.266;10.410;2023-03-22T02:32:16;100584.94;;;10.84;100.00
10510;BME280;5303;53.266;10.410;2023-03-22T02:34:59;100589.38;;;10.85;100.00
10510;BME280;5303;53.266;10.410;2023-03-22T02:40:14;100596.69;;;10.85;100.00
10510;BME280;5303;53.266;10.410;2023-03-22T02:45:35;100582.22;;;10.84;100.00
10510;BME280;5303;53.266;10.410;2023-03-22T02:48:08;100581.38;;;10.84;100.00
10510;BME280;5303;53.266;10.410;2023-03-22T02:50:50;100580.66;;;10.90;100.00
10510;BME280;5303;53.266;10.410;2023-03-22T02:53:23;100575.50;;;10.95;100.00
10510;BME280;5303;53.266;10.410;2023-03-22T02:55:54;100582.41;;;11.06;100.00
10510;BME280;5303;53.266;10.410;2023-03-22T02:58:26;100578.34;;;11.02;100.00
10510;BME280;5303;53.266;10.410;2023-03-22T03:01:00;100577.00;;;10.98;100.00
10510;BME280;5303;53.266;10.410;2023-03-22T03:03:28;100581.25;;;11.00;100.00
10510;BME280;5303;53.266;10.410;2023-03-22T03:05:59;100579.91;;;10.96;100.00
10510;BME280;5303;53.266;10.410;2023-03-22T03:08:26;100575.06;;;11.06;100.00
10510;BME280;5303;53.266;10.410;2023-03-22T03:10:53;100583.69;;;10.95;100.00
10510;BME280;5303;53.266;10.410;2023-03-22T03:13:19;100570.09;;;10.87;100.00
10510;BME280;5303;53.266;10.410;2023-03-22T03:15:51;100584.69;;;10.94;100.00
10510;BME280;5303;53.266;10.410;2023-03-22T03:21:32;100572.94;;;10.93;100.00
10510;BME280;5303;53.266;10.410;2023-03-22T03:26:48;100561.44;;;10.83;100.00
10510;BME280;5303;53.266;10.410;2023-03-22T03:29:30;100562.78;;;10.87;100.00
10510;BME280;5303;53.266;10.410;2023-03-22T03:32:18;100563.38;;;10.98;100.00
10510;BME280;5303;53.266;10.410;2023-03-22T03:34:58;100564.28;;;10.90;100.00
10510;BME280;5303;53.266;10.410;2023-03-22T03:37:29;100567.69;;;10.92;100.00
10510;BME280;5303;53.266;10.410;2023-03-22T03:40:03;100565.47;;;11.10;100.00
10510;BME280;5303;53.266;10.410;2023-03-22T03:42:32;100569.75;;;10.90;100.00
10510;BME280;5303;53.266;10.410;2023-03-22T03:44:58;100562.78;;;10.87;100.00
10510;BME280;5303;53.266;10.410;2023-03-22T03:47:24;100563.34;;;10.83;100.00
10510;BME280;5303;53.266;10.410;2023-03-22T03:49:52;100567.56;;;10.85;100.00
10510;BME280;5303;53.266;10.410;2023-03-22T03:52:17;100560.97;;;10.80;100.00
10510;BME280;5303;53.266;10.410;2023-03-22T03:54:43;100555.88;;;11.00;100.00
10510;BME280;5303;53.266;10.410;2023-03-22T03:57:09;100560.38;;;10.92;100.00
10510;BME280;5303;53.266;10.410;2023-03-22T03:59:36;100564.13;;;10.91;100.00
10510;BME280;5303;53.266;10.410;2023-03-22T04:02:01;100556.69;;;10.85;100.00
10510;BME280;5303;53.266;10.410;2023-03-22T04:04:27;100551.28;;;10.77;100.00
10510;BME280;5303;53.266;10.410;2023-03-22T04:06:54;100555.63;;;10.86;100.00
10510;BME280;5303;53.266;10.410;2023-03-22T04:09:21;100561.81;;;10.80;100.00
10510;BME280;5303;53.266;10.410;2023-03-22T04:11:47;100558.25;;;10.80;100.00
10510;BME280;5303;53.266;10.410;2023-03-22T04:14:12;100565.56;;;10.79;100.00
10510;BME280;5303;53.266;10.410;2023-03-22T04:16:37;100563.56;;;10.73;100.00
10510;BME280;5303;53.266;10.410;2023-03-22T04:19:02;100559.09;;;10.80;100.00
10510;BME280;5303;53.266;10.410;2023-03-22T04:21:28;100563.13;;;10.84;100.00
10510;BME280;5303;53.266;10.410;2023-03-22T04:23:53;100559.22;;;10.87;100.00
10510;BME280;5303;53.266;10.410;2023-03-22T04:26:19;100553.16;;;10.77;100.00
10510;BME280;5303;53.266;10.410;2023-03-22T04:28:45;100549.22;;;10.79;100.00
10510;BME280;5303;53.266;10.410;2023-03-22T04:31:10;100551.16;;;10.70;100.00
10510;BME280;5303;53.266;10.410;2023-03-22T04:33:35;100548.53;;;10.77;100.00
10510;BME280;5303;53.266;10.410;2023-03-22T04:36:05;100550.44;;;10.77;100.00
10510;BME280;5303;53.266;10.410;2023-03-22T04:38:31;100547.88;;;10.75;100.00
10510;BME280;5303;53.266;10.410;2023-03-22T04:40:57;100548.44;;;10.70;100.00
10510;BME280;5303;53.266;10.410;2023-03-22T04:43:22;100543.09;;;10.77;100.00
10510;BME280;5303;53.266;10.410;2023-03-22T04:45:47;100540.94;;;10.72;100.00
10510;BME280;5303;53.266;10.410;2023-03-22T04:48:13;100540.25;;;10.70;100.00
10510;BME280;5303;53.266;10.410;2023-03-22T04:50:38;100534.56;;;10.57;100.00
10510;BME280;5303;53.266;10.410;2023-03-22T04:53:04;100534.13;;;10.68;100.00
10510;BME280;5303;53.266;10.410;2023-03-22T04:55:30;100534.81;;;10.70;100.00
10510;BME280;5303;53.266;10.410;2023-03-22T04:57:55;100536.84;;;10.68;100.00
10510;BME280;5303;53.266;10.410;2023-03-22T05:00:20;100532.63;;;10.66;100.00
10510;BME280;5303;53.266;10.410;2023-03-22T05:02:46;100531.03;;;10.71;100.00
10510;BME280;5303;53.266;10.410;2023-03-22T05:05:11;100533.13;;;10.69;100.00
10510;BME280;5303;53.266;10.410;2023-03-22T05:07:37;100526.81;;;10.69;100.00
10510;BME280;5303;53.266;10.410;2023-03-22T05:10:04;100522.59;;;10.66;100.00
10510;BME280;5303;53.266;10.410;2023-03-22T05:12:29;100516.59;;;10.71;100.00
10510;BME280;5303;53.266;10.410;2023-03-22T05:14:55;100522.88;;;10.71;100.00
10510;BME280;5303;53.266;10.410;2023-03-22T05:17:21;100521.75;;;10.66;100.00
10510;BME280;5303;53.266;10.410;2023-03-22T05:19:46;100515.78;;;10.62;100.00
10510;BME280;5303;53.266;10.410;2023-03-22T05:22:11;100519.63;;;10.76;100.00
10510;BME280;5303;53.266;10.410;2023-03-22T05:24:38;100521.38;;;10.69;100.00
10510;BME280;5303;53.266;10.410;2023-03-22T05:27:03;100516.06;;;10.76;100.00
10510;BME280;5303;53.266;10.410;2023-03-22T05:29:28;100508.53;;;10.78;100.00
10510;BME280;5303;53.266;10.410;2023-03-22T05:31:53;100511.25;;;10.78;100.00
10510;BME280;5303;53.266;10.410;2023-03-22T05:34:19;100511.25;;;10.78;100.00
10510;BME280;5303;53.266;10.410;2023-03-22T05:36:46;100509.38;;;10.78;100.00
10510;BME280;5303;53.266;10.410;2023-03-22T05:39:11;100515.19;;;10.75;100.00
10510;BME280;5303;53.266;10.410;2023-03-22T05:41:38;100511.94;;;10.80;100.00
10510;BME280;5303;53.266;10.410;2023-03-22T05:44:04;100514.28;;;10.83;100.00
10510;BME280;5303;53.266;10.410;2023-03-22T05:46:29;100513.09;;;10.85;100.00
10510;BME280;5303;53.266;10.410;2023-03-22T05:48:54;100518.66;;;10.92;100.00
10510;BME280;5303;53.266;10.410;2023-03-22T05:51:20;100519.00;;;10.89;100.00
10510;BME280;5303;53.266;10.410;2023-03-22T05:53:46;100519.16;;;10.87;100.00
10510;BME280;5303;53.266;10.410;2023-03-22T05:56:12;100516.41;;;10.95;100.00
10510;BME280;5303;53.266;10.410;2023-03-22T05:58:37;100527.66;;;10.92;100.00
10510;BME280;5303;53.266;10.410;2023-03-22T06:01:08;100525.22;;;10.98;100.00
10510;BME280;5303;53.266;10.410;2023-03-22T06:03:36;100523.66;;;11.03;100.00
10510;BME280;5303;53.266;10.410;2023-03-22T06:06:01;100519.66;;;11.14;100.00
10510;BME280;5303;53.266;10.410;2023-03-22T06:08:30;100528.38;;;11.09;100.00
10510;BME280;5303;53.266;10.410;2023-03-22T06:10:56;100517.78;;;11.14;100.00
10510;BME280;5303;53.266;10.410;2023-03-22T06:13:21;100517.56;;;11.16;100.00
10510;BME280;5303;53.266;10.410;2023-03-22T06:15:46;100528.56;;;11.23;100.00
10510;BME280;5303;53.266;10.410;2023-03-22T06:18:12;100517.94;;;11.13;100.00
10510;BME280;5303;53.266;10.410;2023-03-22T06:20:38;100526.41;;;11.18;100.00
10510;BME280;5303;53.266;10.410;2023-03-22T06:23:04;100525.84;;;11.23;100.00
10510;BME280;5303;53.266;10.410;2023-03-22T06:25:30;100530.66;;;11.21;100.00
10510;BME280;5303;53.266;10.410;2023-03-22T06:27:56;100526.91;;;11.22;100.00
10510;BME280;5303;53.266;10.410;2023-03-22T06:30:21;100517.78;;;11.29;100.00
10510;BME280;5303;53.266;10.410;2023-03-22T06:32:46;100516.19;;;11.35;100.00
10510;BME280;5303;53.266;10.410;2023-03-22T06:35:12;100507.06;;;11.42;100.00
10510;BME280;5303;53.266;10.410;2023-03-22T06:37:37;100502.47;;;11.58;100.00
10510;BME280;5303;53.266;10.410;2023-03-22T06:40:03;100505.13;;;11.66;100.00
10510;BME280;5303;53.266;10.410;2023-03-22T06:42:28;100491.59;;;11.73;100.00
10510;BME280;5303;53.266;10.410;2023-03-22T06:44:55;100498.94;;;11.87;100.00
10510;BME280;5303;53.266;10.410;2023-03-22T06:47:20;100490.38;;;11.90;100.00
10510;BME280;5303;53.266;10.410;2023-03-22T06:49:46;100492.34;;;11.96;100.00
10510;BME280;5303;53.266;10.410;2023-03-22T06:52:11;100490.53;;;12.03;100.00
10510;BME280;5303;53.266;10.410;2023-03-22T06:54:36;100490.06;;;12.00;100.00
10510;BME280;5303;53.266;10.410;2023-03-22T06:57:02;100494.22;;;12.32;100.00
10510;BME280;5303;53.266;10.410;2023-03-22T06:59:27;100488.47;;;12.42;100.00
10510;BME280;5303;53.266;10.410;2023-03-22T07:01:52;100483.06;;;12.48;100.00
10510;BME280;5303;53.266;10.410;2023-03-22T07:04:17;100485.47;;;12.58;100.00
10510;BME280;5303;53.266;10.410;2023-03-22T07:06:44;100481.06;;;12.57;100.00
10510;BME280;5303;53.266;10.410;2023-03-22T07:09:09;100484.19;;;12.54;100.00
10510;BME280;5303;53.266;10.410;2023-03-22T07:11:34;100487.63;;;12.63;100.00
10510;BME280;5303;53.266;10.410;2023-03-22T07:13:59;100485.22;;;12.53;100.00
10510;BME280;5303;53.266;10.410;2023-03-22T07:16:25;100480.00;;;12.58;100.00
10510;BME280;5303;53.266;10.410;2023-03-22T07:18:51;100487.63;;;12.63;100.00
10510;BME280;5303;53.266;10.410;2023-03-22T07:21:16;100482.75;;;12.58;100.00
10510;BME280;5303;53.266;10.410;2023-03-22T07:23:41;100485.69;;;12.78;100.00
10510;BME280;5303;53.266;10.410;2023-03-22T07:26:07;100484.56;;;12.51;100.00
10510;BME280;5303;53.266;10.410;2023-03-22T07:28:32;100483.47;;;12.67;100.00
10510;BME280;5303;53.266;10.410;2023-03-22T07:31:05;100485.47;;;12.79;100.00
10510;BME280;5303;53.266;10.410;2023-03-22T07:33:31;100476.84;;;12.76;100.00
10510;BME280;5303;53.266;10.410;2023-03-22T07:35:56;100468.97;;;12.88;100.00
10510;BME280;5303;53.266;10.410;2023-03-22T07:38:21;100470.19;;;12.85;100.00
10510;BME280;5303;53.266;10.410;2023-03-22T07:40:47;100464.13;;;12.90;100.00
10510;BME280;5303;53.266;10.410;2023-03-22T07:43:14;100462.22;;;12.90;100.00
10510;BME280;5303;53.266;10.410;2023-03-22T07:45:40;100463.88;;;12.85;100.00
10510;BME280;5303;53.266;10.410;2023-03-22T07:48:05;100464.03;;;13.04;100.00
10510;BME280;5303;53.266;10.410;2023-03-22T07:50:30;100475.16;;;13.03;100.00
10510;BME280;5303;53.266;10.410;2023-03-22T07:52:56;100444.91;;;13.04;100.00
10510;BME280;5303;53.266;10.410;2023-03-22T07:55:21;100456.13;;;12.88;100.00
10510;BME280;5303;53.266;10.410;2023-03-22T07:57:48;100454.03;;;12.90;100.00
10510;BME280;5303;53.266;10.410;2023-03-22T08:00:14;100460.47;;;13.04;100.00
10510;BME280;5303;53.266;10.410;2023-03-22T08:02:39;100446.84;;;13.11;100.00
10510;BME280;5303;53.266;10.410;2023-03-22T08:05:05;100446.00;;;13.10;100.00
10510;BME280;5303;53.266;10.410;2023-03-22T08:07:31;100451.38;;;13.25;100.00
10510;BME280;5303;53.266;10.410;2023-03-22T08:09:56;100451.00;;;13.28;100.00
10510;BME280;5303;53.266;10.410;2023-03-22T08:12:21;100445.06;;;13.24;100.00
10510;BME280;5303;53.266;10.410;2023-03-22T08:14:47;100441.28;;;13.25;100.00
10510;BME280;5303;53.266;10.410;2023-03-22T08:17:15;100427.91;;;13.37;100.00
10510;BME280;5303;53.266;10.410;2023-03-22T08:19:41;100433.22;;;13.45;100.00
10510;BME280;5303;53.266;10.410;2023-03-22T08:22:06;100430.31;;;13.54;100.00
10510;BME280;5303;53.266;10.410;2023-03-22T08:24:33;100425.22;;;13.44;100.00
10510;BME280;5303;53.266;10.410;2023-03-22T08:26:59;100424.16;;;13.45;100.00
10510;BME280;5303;53.266;10.410;2023-03-22T08:29:24;100417.03;;;13.50;100.00
10510;BME280;5303;53.266;10.410;2023-03-22T08:31:50;100412.91;;;13.61;100.00
10510;BME280;5303;53.266;10.410;2023-03-22T08:34:16;100407.03;;;13.64;100.00
10510;BME280;5303;53.266;10.410;2023-03-22T08:36:41;100392.09;;;13.73;100.00
10510;BME280;5303;53.266;10.410;2023-03-22T08:39:06;100385.34;;;13.76;100.00
10510;BME280;5303;53.266;10.410;2023-03-22T08:41:33;100373.41;;;13.90;100.00
10510;BME280;5303;53.266;10.410;2023-03-22T08:43:58;100374.28;;;13.97;100.00
10510;BME280;5303;53.266;10.410;2023-03-22T08:46:23;100365.38;;;13.82;100.00
10510;BME280;5303;53.266;10.410;2023-03-22T08:48:49;100371.53;;;13.97;100.00
10510;BME280;5303;53.266;10.410;2023-03-22T08:51:18;100358.69;;;14.05;100.00
10510;BME280;5303;53.266;10.410;2023-03-22T08:53:47;100365.66;;;14.01;100.00
10510;BME280;5303;53.266;10.410;2023-03-22T08:56:13;100361.47;;;14.18;100.00
10510;BME280;5303;53.266;10.410;2023-03-22T08:58:41;100360.63;;;14.17;100.00
10510;BME280;5303;53.266;10.410;2023-03-22T09:01:11;100363.34;;;14.04;100.00
10510;BME280;5303;53.266;10.410;2023-03-22T09:03:37;100349.25;;;14.27;100.00
10510;BME280;5303;53.266;10.410;2023-03-22T09:06:03;100354.31;;;14.43;100.00
10510;BME280;5303;53.266;10.410;2023-03-22T09:08:28;100348.00;;;14.43;100.00
10510;BME280;5303;53.266;10.410;2023-03-22T09:10:54;100349.72;;;14.51;100.00
10510;BME280;5303;53.266;10.410;2023-03-22T09:13:19;100355.84;;;14.66;100.00
10510;BME280;5303;53.266;10.410;2023-03-22T09:15:45;100360.47;;;14.65;100.00
10510;BME280;5303;53.266;10.410;2023-03-22T09:18:10;100361.53;;;14.84;100.00
10510;BME280;5303;53.266;10.410;2023-03-22T09:20:36;100348.44;;;14.93;100.00
10510;BME280;5303;53.266;10.410;2023-03-22T09:23:02;100341.25;;;14.92;100.00
10510;BME280;5303;53.266;10.410;2023-03-22T09:25:27;100334.72;;;15.00;100.00
10510;BME280;5303;53.266;10.410;2023-03-22T09:27:53;100334.69;;;15.06;100.00
10510;BME280;5303;53.266;10.410;2023-03-22T09:30:18;100332.13;;;15.11;100.00
10510;BME280;5303;53.266;10.410;2023-03-22T09:32:43;100330.25;;;15.19;100.00
10510;BME280;5303;53.266;10.410;2023-03-22T09:35:09;100327.69;;;15.24;100.00
10510;BME280;5303;53.266;10.410;2023-03-22T09:37:34;100321.56;;;15.28;100.00
10510;BME280;5303;53.266;10.410;2023-03-22T09:39:59;100319.81;;;15.34;100.00
10510;BME280;5303;53.266;10.410;2023-03-22T09:42:30;100317.31;;;15.32;100.00
10510;BME280;5303;53.266;10.410;2023-03-22T09:44:56;100325.78;;;15.18;100.00
10510;BME280;5303;53.266;10.410;2023-03-22T09:47:52;100314.31;;;15.41;100.00
10510;BME280;5303;53.266;10.410;2023-03-22T09:50:23;100305.03;;;15.42;100.00
10510;BME280;5303;53.266;10.410;2023-03-22T09:52:50;100301.81;;;15.51;100.00
10510;BME280;5303;53.266;10.410;2023-03-22T09:55:29;100287.66;;;15.54;100.00
10510;BME280;5303;53.266;10.410;2023-03-22T10:01:03;100279.31;;;15.81;100.00
10510;BME280;5303;53.266;10.410;2023-03-22T10:06:25;100288.22;;;15.76;100.00
10510;BME280;5303;53.266;10.410;2023-03-22T10:09:07;100283.59;;;15.70;100.00
10510;BME280;5303;53.266;10.410;2023-03-22T10:11:42;100287.50;;;15.88;100.00
10510;BME280;5303;53.266;10.410;2023-03-22T10:14:23;100281.03;;;15.75;100.00
10510;BME280;5303;53.266;10.410;2023-03-22T10:16:54;100273.75;;;15.88;100.00
10510;BME280;5303;53.266;10.410;2023-03-22T10:19:32;100280.63;;;16.03;100.00
10510;BME280;5303;53.266;10.410;2023-03-22T10:22:00;100276.22;;;16.02;100.00
10510;BME280;5303;53.266;10.410;2023-03-22T10:24:30;100274.53;;;15.70;100.00
10510;BME280;5303;53.266;10.410;2023-03-22T10:26:57;100270.75;;;15.96;100.00
10510;BME280;5303;53.266;10.410;2023-03-22T10:29:29;100263.50;;;16.01;100.00
10510;BME280;5303;53.266;10.410;2023-03-22T10:32:08;100259.81;;;15.89;100.00
10510;BME280;5303;53.266;10.410;2023-03-22T10:34:36;100269.16;;;15.81;100.00
10510;BME280;5303;53.266;10.410;2023-03-22T10:37:02;100267.03;;;15.83;100.00
10510;BME280;5303;53.266;10.410;2023-03-22T10:39:33;100277.44;;;16.06;100.00
10510;BME280;5303;53.266;10.410;2023-03-22T10:42:02;100269.34;;;15.87;100.00
10510;BME280;5303;53.266;10.410;2023-03-22T10:44:31;100271.38;;;15.98;100.00
10510;BME280;5303;53.266;10.410;2023-03-22T10:47:00;100275.38;;;15.95;100.00
10510;BME280;5303;53.266;10.410;2023-03-22T10:49:34;100273.50;;;15.96;100.00
10510;BME280;5303;53.266;10.410;2023-03-22T10:52:04;100277.69;;;15.98;100.00
10510;BME280;5303;53.266;10.410;2023-03-22T10:54:34;100290.44;;;15.93;100.00
10510;BME280;5303;53.266;10.410;2023-03-22T10:57:00;100283.72;;;15.82;100.00
10510;BME280;5303;53.266;10.410;2023-03-22T10:59:45;100287.34;;;15.76;100.00
10510;BME280;5303;53.266;10.410;2023-03-22T11:02:27;100276.59;;;16.06;100.00
10510;BME280;5303;53.266;10.410;2023-03-22T11:04:58;100291.69;;;16.22;100.00
10510;BME280;5303;53.266;10.410;2023-03-22T11:07:40;100277.06;;;16.28;100.00
10510;BME280;5303;53.266;10.410;2023-03-22T11:10:20;100276.31;;;16.14;100.00
10510;BME280;5303;53.266;10.410;2023-03-22T11:12:53;100280.44;;;15.98;100.00
10510;BME280;5303;53.266;10.410;2023-03-22T11:15:28;100273.63;;;16.07;100.00
10510;BME280;5303;53.266;10.410;2023-03-22T11:18:19;100268.28;;;15.88;100.00
10510;BME280;5303;53.266;10.410;2023-03-22T11:20:57;100278.63;;;15.92;100.00
10510;BME280;5303;53.266;10.410;2023-03-22T11:23:23;100275.81;;;15.99;100.00
10510;BME280;5303;53.266;10.410;2023-03-22T11:25:51;100271.41;;;15.91;100.00
10510;BME280;5303;53.266;10.410;2023-03-22T11:28:21;100274.88;;;16.12;100.00
10510;BME280;5303;53.266;10.410;2023-03-22T11:30:59;100272.47;;;16.22;100.00
10510;BME280;5303;53.266;10.410;2023-03-22T11:33:25;100269.31;;;16.18;100.00
10510;BME280;5303;53.266;10.410;2023-03-22T11:35:56;100262.88;;;16.31;100.00
10510;BME280;5303;53.266;10.410;2023-03-22T11:38:33;100277.66;;;16.30;100.00
10510;BME280;5303;53.266;10.410;2023-03-22T11:41:01;100282.00;;;16.44;100.00
10510;BME280;5303;53.266;10.410;2023-03-22T11:43:35;100279.69;;;16.41;100.00
10510;BME280;5303;53.266;10.410;2023-03-22T11:46:02;100273.75;;;16.44;100.00
10510;BME280;5303;53.266;10.410;2023-03-22T11:48:30;100280.19;;;16.57;100.00
10510;BME280;5303;53.266;10.410;2023-03-22T11:51:49;100277.03;;;16.53;100.00
10510;BME280;5303;53.266;10.410;2023-03-22T11:54:15;100285.13;;;16.48;100.00
10510;BME280;5303;53.266;10.410;2023-03-22T11:56:46;100278.06;;;16.34;100.00
10510;BME280;5303;53.266;10.410;2023-03-22T11:59:21;100273.44;;;16.34;100.00
10510;BME280;5303;53.266;10.410;2023-03-22T12:04:37;100272.84;;;16.25;100.00
10510;BME280;5303;53.266;10.410;2023-03-22T12:07:13;100272.97;;;16.12;100.00
10510;BME280;5303;53.266;10.410;2023-03-22T12:09:43;100265.16;;;16.09;100.00
10510;BME280;5303;53.266;10.410;2023-03-22T12:12:26;100279.94;;;16.15;100.00
10510;BME280;5303;53.266;10.410;2023-03-22T12:15:17;100274.38;;;16.21;100.00
10510;BME280;5303;53.266;10.410;2023-03-22T12:22:59;100271.06;;;16.38;100.00
10510;BME280;5303;53.266;10.410;2023-03-22T12:25:32;100268.91;;;16.40;100.00
10510;BME280;5303;53.266;10.410;2023-03-22T12:28:02;100247.41;;;16.55;100.00
10510;BME280;5303;53.266;10.410;2023-03-22T12:30:37;100259.03;;;16.57;100.00
10510;BME280;5303;53.266;10.410;2023-03-22T12:33:27;100258.03;;;16.76;100.00
10510;BME280;5303;53.266;10.410;2023-03-22T12:36:01;100252.94;;;16.73;100.00
10510;BME280;5303;53.266;10.410;2023-03-22T12:38:38;100255.88;;;16.79;100.00
10510;BME280;5303;53.266;10.410;2023-03-22T12:41:08;100251.00;;;16.81;100.00
10510;BME280;5303;53.266;10.410;2023-03-22T12:46:22;100254.69;;;17.11;100.00
10510;BME280;5303;53.266;10.410;2023-03-22T12:48:53;100260.28;;;17.05;100.00
10510;BME280;5303;53.266;10.410;2023-03-22T12:51:21;100254.75;;;16.86;94.77
10510;BME280;5303;53.266;10.410;2023-03-22T12:53:52;100257.78;;;16.78;97.40
10510;BME280;5303;53.266;10.410;2023-03-22T12:56:25;100247.63;;;16.97;97.65
10510;BME280;5303;53.266;10.410;2023-03-22T12:59:00;100246.09;;;17.01;98.45
10510;BME280;5303;53.266;10.410;2023-03-22T13:01:35;100248.06;;;16.75;100.00
10510;BME280;5303;53.266;10.410;2023-03-22T13:08:01;100253.94;;;16.61;100.00
10510;BME280;5303;53.266;10.410;2023-03-22T13:15:38;100257.97;;;16.58;100.00
10510;BME280;5303;53.266;10.410;2023-03-22T13:18:26;100250.69;;;16.45;100.00
10510;BME280;5303;53.266;10.410;2023-03-22T13:23:52;100253.22;;;16.65;100.00
10510;BME280;5303;53.266;10.410;2023-03-22T13:26:18;100254.50;;;16.44;100.00
10510;BME280;5303;53.266;10.410;2023-03-22T13:29:00;100254.84;;;16.29;100.00
10510;BME280;5303;53.266;10.410;2023-03-22T13:31:43;100249.72;;;16.33;100.00
10510;BME280;5303;53.266;10.410;2023-03-22T13:34:14;100253.03;;;16.42;100.00
10510;BME280;5303;53.266;10.410;2023-03-22T13:36:48;100250.22;;;16.48;100.00
10510;BME280;5303;53.266;10.410;2023-03-22T13:39:15;100247.22;;;16.32;100.00